Time;durP1;ratioP1;P1;durP2;ratioP2;P2;SDS_P1;SDS_P2;PMS_P1;PMS_P2;Temp;Humidity;BMP_temperature;BMP_pressure;BME280_temperature;BME280_humidity;BME280_pressure;Samples;Min_cycle;Max_cycle;Signal;HPM_P1;HPM_P2
2022/10/05 04:00:24;;;;;;;15.80;14.47;;;10.20;99.90;;;;;;5967548;23;20492;-66
2022/10/05 04:02:58;;;;;;;15.10;13.90;;;10.10;99.90;;;;;;4977495;28;20447;-66
2022/10/05 04:05:28;;;;;;;14.37;13.07;;;10.00;99.90;;;;;;4976832;28;20435;-66
2022/10/05 04:07:59;;;;;;;16.10;12.40;;;10.00;99.90;;;;;;4976851;28;20447;-66
2022/10/05 04:10:29;;;;;;;14.40;13.20;;;10.00;99.90;;;;;;4976353;28;20969;-66
2022/10/05 04:13:01;;;;;;;14.13;12.83;;;9.90;99.90;;;;;;4976737;28;20513;-66
2022/10/05 04:15:33;;;;;;;12.40;11.40;;;9.90;99.90;;;;;;4976912;28;20439;-66
2022/10/05 04:18:04;;;;;;;12.17;11.07;;;9.90;99.90;;;;;;4977278;28;20439;-66
2022/10/05 04:20:36;;;;;;;13.57;12.17;;;9.80;99.90;;;;;;4976629;28;20489;-65
2022/10/05 04:23:11;;;;;;;13.20;12.00;;;9.80;99.90;;;;;;4976895;28;20443;-66
2022/10/05 04:25:44;;;;;;;13.40;12.10;;;9.80;99.90;;;;;;4977867;28;20478;-66
2022/10/05 04:28:16;;;;;;;12.90;11.90;;;9.80;99.90;;;;;;4976454;28;20773;-65
2022/10/05 04:30:48;;;;;;;14.10;12.70;;;9.80;99.90;;;;;;4976322;28;20475;-66
2022/10/05 04:33:15;;;;;;;14.47;13.10;;;9.80;99.90;;;;;;4976400;28;20447;-66
2022/10/05 04:35:56;;;;;;;12.73;11.50;;;9.80;99.90;;;;;;4976281;28;20477;-66
2022/10/05 04:38:37;;;;;;;14.50;11.50;;;9.80;99.90;;;;;;4975537;28;20443;-66
2022/10/05 04:41:21;;;;;;;11.90;10.87;;;9.80;99.90;;;;;;4975751;28;20973;-66
2022/10/05 04:44:00;;;;;;;12.97;11.80;;;9.80;99.90;;;;;;4976396;28;20490;-66
2022/10/05 04:46:40;;;;;;;12.43;11.40;;;9.80;99.90;;;;;;4976135;28;20497;-65
2022/10/05 04:49:31;;;;;;;11.73;10.73;;;9.80;99.90;;;;;;4975970;28;20493;-66
2022/10/05 04:52:08;;;;;;;10.60;9.80;;;9.80;99.90;;;;;;4975866;28;20529;-67
2022/10/05 04:54:47;;;;;;;12.00;10.90;;;9.90;99.90;;;;;;4975974;28;20442;-66
2022/10/05 04:57:19;;;;;;;11.83;10.90;;;9.90;99.90;;;;;;4975869;28;20873;-66
2022/10/05 05:00:04;;;;;;;12.57;10.83;;;10.00;99.90;;;;;;4976393;28;20443;-66
2022/10/05 05:02:47;;;;;;;12.93;11.60;;;10.00;99.90;;;;;;4975576;28;20561;-66
2022/10/05 05:05:30;;;;;;;11.67;10.67;;;10.00;99.90;;;;;;4976189;28;20494;-66
2022/10/05 05:08:11;;;;;;;14.27;12.80;;;10.00;99.90;;;;;;4975665;28;20453;-67
2022/10/05 05:11:02;;;;;;;14.40;12.63;;;10.00;99.90;;;;;;4975724;28;20540;-66
2022/10/05 05:14:03;;;;;;;12.17;11.27;;;10.00;99.90;;;;;;4975489;28;20439;-67
2022/10/05 05:16:35;;;;;;;14.37;12.90;;;10.00;99.90;;;;;;4975359;28;20458;-66
2022/10/05 05:19:17;;;;;;;12.93;11.93;;;10.00;99.90;;;;;;4975613;28;20443;-66
2022/10/05 05:21:52;;;;;;;14.67;13.40;;;10.00;99.90;;;;;;4975050;28;20878;-66
2022/10/05 05:24:24;;;;;;;15.27;13.80;;;10.00;99.90;;;;;;4975329;28;20997;-65
2022/10/05 05:27:04;;;;;;;15.60;14.00;;;10.00;99.90;;;;;;4975990;28;20811;-65
2022/10/05 05:29:51;;;;;;;13.50;12.30;;;10.10;99.90;;;;;;4975459;28;20791;-66
2022/10/05 05:32:26;;;;;;;13.57;12.37;;;10.10;99.90;;;;;;4975487;28;20470;-66
2022/10/05 05:35:08;;;;;;;12.13;11.13;;;10.10;99.90;;;;;;4975265;28;20806;-66
2022/10/05 05:37:43;;;;;;;15.23;12.30;;;10.10;99.90;;;;;;4975286;28;20490;-66
2022/10/05 05:40:16;;;;;;;13.63;12.23;;;10.10;99.90;;;;;;4975139;28;20443;-65
2022/10/05 05:42:51;;;;;;;13.67;12.37;;;10.20;99.90;;;;;;4975110;28;20463;-66
2022/10/05 05:45:29;;;;;;;14.40;13.10;;;10.10;99.90;;;;;;4975228;28;20442;-66
2022/10/05 05:47:59;;;;;;;13.13;11.93;;;10.20;99.90;;;;;;4975602;28;20443;-65
2022/10/05 05:50:40;;;;;;;15.20;13.90;;;10.20;99.90;;;;;;4974680;28;20937;-65
2022/10/05 05:53:14;;;;;;;14.00;12.60;;;10.20;99.90;;;;;;4975114;28;20446;-68
2022/10/05 05:55:43;;;;;;;13.93;12.63;;;10.20;99.90;;;;;;4975191;28;20447;-66
2022/10/05 05:58:18;;;;;;;14.00;12.43;;;10.20;99.90;;;;;;4974901;28;20458;-66
2022/10/05 06:00:50;;;;;;;20.87;11.80;;;10.20;99.90;;;;;;4974592;28;20486;-66
2022/10/05 06:03:22;;;;;;;13.40;12.13;;;10.30;99.90;;;;;;4975461;28;20442;-67
2022/10/05 06:05:54;;;;;;;13.23;12.03;;;10.30;99.90;;;;;;4975152;28;20443;-66
2022/10/05 06:08:27;;;;;;;12.70;11.53;;;10.30;99.90;;;;;;4974875;28;20491;-65
2022/10/05 06:10:59;;;;;;;13.60;12.20;;;10.30;99.90;;;;;;4974606;28;20835;-65
2022/10/05 06:13:31;;;;;;;12.77;11.40;;;10.40;99.90;;;;;;4974896;28;20973;-65
2022/10/05 06:16:04;;;;;;;13.20;11.90;;;10.40;99.90;;;;;;4974907;28;20443;-65
2022/10/05 06:18:32;;;;;;;12.30;11.20;;;10.50;99.90;;;;;;4975063;28;20439;-66
2022/10/05 06:21:04;;;;;;;13.03;11.93;;;10.60;99.90;;;;;;4974237;28;21036;-65
2022/10/05 06:23:37;;;;;;;11.57;10.57;;;10.60;99.90;;;;;;4974691;28;20443;-66
2022/10/05 06:26:13;;;;;;;13.13;12.00;;;10.70;99.90;;;;;;4976307;28;20439;-66
2022/10/05 06:28:41;;;;;;;12.23;11.13;;;10.80;99.90;;;;;;4980256;28;20442;-66
2022/10/05 06:31:18;;;;;;;13.40;11.50;;;10.90;99.90;;;;;;4977921;28;20471;-66
2022/10/05 06:33:52;;;;;;;10.30;9.33;;;11.10;99.90;;;;;;4975833;28;20894;-66
2022/10/05 06:36:34;;;;;;;9.43;8.73;;;11.80;99.90;;;;;;4975630;28;20443;-66
2022/10/05 06:39:22;;;;;;;10.67;8.10;;;12.70;99.90;;;;;;4975421;28;20443;-66
2022/10/05 06:42:12;;;;;;;9.97;8.23;;;13.70;99.90;;;;;;4974790;28;20486;-67
2022/10/05 06:44:47;;;;;;;9.07;7.20;;;14.70;99.90;;;;;;4974803;28;20562;-67
2022/10/05 06:47:23;;;;;;;7.83;7.10;;;15.70;99.90;;;;;;4974458;28;20438;-67
2022/10/05 06:49:58;;;;;;;7.37;6.77;;;16.50;99.90;;;;;;4974577;28;20439;-67
2022/10/05 06:52:34;;;;;;;6.67;6.00;;;17.20;99.90;;;;;;4974416;28;20521;-67
2022/10/05 06:55:15;;;;;;;6.50;6.00;;;17.80;99.90;;;;;;4974440;28;20501;-67
2022/10/05 06:57:53;;;;;;;9.13;5.20;;;18.60;99.90;;;;;;4974901;28;20443;-67
2022/10/05 07:00:21;;;;;;;6.67;5.93;;;19.30;99.90;;;;;;4975623;28;20489;-66
2022/10/05 07:02:55;;;;;;;8.13;5.70;;;19.60;99.90;;;;;;4978396;28;20466;-67
2022/10/05 07:05:44;;;;;;;6.40;5.90;;;19.90;99.90;;;;;;4978767;28;20976;-67
2022/10/05 07:08:17;;;;;;;6.33;5.87;;;20.40;99.90;;;;;;4977865;28;20525;-66
2022/10/05 07:11:01;;;;;;;8.43;5.87;;;20.60;99.90;;;;;;4977757;28;20481;-67
2022/10/05 07:13:46;;;;;;;8.40;6.80;;;20.90;99.90;;;;;;4977722;28;20439;-67
2022/10/05 07:16:24;;;;;;;6.00;5.57;;;20.60;99.90;;;;;;4977921;28;20438;-67
2022/10/05 07:19:04;;;;;;;6.50;6.00;;;20.70;99.90;;;;;;4977724;28;20442;-67
2022/10/05 07:21:38;;;;;;;6.30;5.90;;;21.00;99.90;;;;;;4977604;28;20482;-67
2022/10/05 07:24:22;;;;;;;6.67;6.10;;;21.20;99.90;;;;;;4977803;28;20443;-67
2022/10/05 07:26:56;;;;;;;6.50;5.97;;;21.30;99.90;;;;;;4977280;28;20841;-67
2022/10/05 07:29:28;;;;;;;6.33;5.93;;;21.40;99.90;;;;;;4977590;28;20783;-67
2022/10/05 07:32:06;;;;;;;5.93;5.50;;;21.80;99.90;;;;;;4977470;28;20475;-67
2022/10/05 07:34:42;;;;;;;5.60;5.10;;;22.20;99.90;;;;;;4977439;28;20450;-67
2022/10/05 07:40:08;;;;;;;6.33;5.83;;;22.60;99.90;;;;;;4977349;28;20506;-67
2022/10/05 07:42:45;;;;;;;6.60;6.00;;;22.70;99.60;;;;;;4977242;28;20486;-67
2022/10/05 07:45:23;;;;;;;6.67;6.23;;;22.90;98.50;;;;;;4978160;28;20449;-68
2022/10/05 07:47:53;;;;;;;7.00;6.50;;;23.40;98.40;;;;;;4977760;28;20439;-67
2022/10/05 07:50:26;;;;;;;6.90;6.33;;;23.50;97.00;;;;;;4977287;28;20520;-66
2022/10/05 07:52:57;;;;;;;6.63;6.07;;;23.70;96.10;;;;;;4976845;28;20905;-67
2022/10/05 07:55:27;;;;;;;6.90;6.40;;;23.90;94.90;;;;;;4977246;28;20467;-67
2022/10/05 07:58:05;;;;;;;7.07;6.43;;;24.10;94.50;;;;;;4977080;28;20463;-68
2022/10/05 08:00:48;;;;;;;6.70;6.13;;;24.40;93.60;;;;;;4977352;28;20482;-67
2022/10/05 08:03:26;;;;;;;6.53;6.00;;;24.60;92.70;;;;;;4976899;28;20810;-67
2022/10/05 08:05:54;;;;;;;6.50;6.10;;;24.70;92.90;;;;;;4977102;28;20850;-67
2022/10/05 08:08:28;;;;;;;7.33;6.83;;;24.70;92.20;;;;;;4976998;28;20458;-67
2022/10/05 08:11:02;;;;;;;7.10;6.50;;;24.70;91.90;;;;;;4976900;28;20506;-67
2022/10/05 08:13:35;;;;;;;6.33;5.83;;;24.90;92.30;;;;;;4975948;28;20475;-67
2022/10/05 08:16:07;;;;;;;7.23;6.17;;;25.30;92.00;;;;;;4976736;28;20518;-67
2022/10/05 08:18:45;;;;;;;7.00;6.10;;;25.60;91.50;;;;;;4977283;28;20449;-67
2022/10/05 08:21:15;;;;;;;7.17;6.57;;;25.90;90.80;;;;;;4976582;28;20488;-67
2022/10/05 08:23:47;;;;;;;5.80;5.23;;;26.20;89.50;;;;;;4976612;28;20520;-67
2022/10/05 08:26:24;;;;;;;6.93;6.43;;;26.70;88.60;;;;;;4977390;28;20454;-67
2022/10/05 08:29:01;;;;;;;6.83;5.73;;;26.80;85.90;;;;;;4976321;28;20961;-67
2022/10/05 08:31:32;;;;;;;5.97;5.60;;;27.10;84.70;;;;;;4976563;28;20904;-67
2022/10/05 08:34:09;;;;;;;5.87;5.47;;;27.10;82.50;;;;;;4976504;28;20446;-68
2022/10/05 08:37:00;;;;;;;6.23;5.83;;;27.30;82.60;;;;;;4976415;28;20443;-67
2022/10/05 08:39:30;;;;;;;5.67;5.10;;;27.50;81.10;;;;;;4974420;28;20467;-68
2022/10/05 08:42:44;;;;;;;5.57;5.13;;;27.90;80.80;;;;;;4976071;28;20537;-68
2022/10/05 08:45:49;;;;;;;6.10;5.70;;;28.00;79.70;;;;;;4976087;28;20942;-68
2022/10/05 08:48:34;;;;;;;6.00;5.60;;;28.20;78.90;;;;;;4962004;28;20458;-67
2022/10/05 08:51:42;;;;;;;7.10;6.30;;;28.60;77.10;;;;;;4976007;28;20478;-68
2022/10/05 08:54:40;;;;;;;6.70;6.10;;;29.00;74.70;;;;;;4975970;28;20454;-68
2022/10/05 08:57:39;;;;;;;5.57;5.07;;;29.40;72.70;;;;;;4975949;28;20790;-68
2022/10/05 09:00:12;;;;;;;6.20;5.60;;;30.00;71.10;;;;;;4975115;28;20999;-68
2022/10/05 09:03:00;;;;;;;6.33;5.53;;;30.00;70.00;;;;;;4975784;28;20463;-68
2022/10/05 09:05:55;;;;;;;5.30;4.90;;;30.20;69.40;;;;;;4974270;28;20994;-68
2022/10/05 09:08:58;;;;;;;5.53;5.00;;;30.00;67.20;;;;;;4975749;28;20454;-67
2022/10/05 09:11:31;;;;;;;6.00;5.43;;;30.50;67.20;;;;;;4975686;28;20470;-67
2022/10/05 09:14:24;;;;;;;5.70;5.40;;;30.60;65.60;;;;;;4975780;28;20474;-68
2022/10/05 09:17:06;;;;;;;6.10;5.70;;;30.80;65.10;;;;;;4975821;28;20435;-67
2022/10/05 09:20:06;;;;;;;5.13;4.73;;;30.80;63.70;;;;;;4975441;28;20498;-67
2022/10/05 09:22:52;;;;;;;5.40;4.47;;;31.00;64.60;;;;;;4938295;28;20487;-68
2022/10/05 09:25:23;;;;;;;4.90;4.60;;;31.30;61.80;;;;;;4980275;28;20439;-68
2022/10/05 09:27:55;;;;;;;5.40;4.90;;;31.40;60.00;;;;;;4979453;28;20509;-67
2022/10/05 09:30:26;;;;;;;4.80;4.50;;;31.30;62.70;;;;;;4976090;28;20442;-67
2022/10/05 09:33:25;;;;;;;4.27;4.00;;;31.40;60.40;;;;;;4975942;28;20533;-67
2022/10/05 09:36:31;;;;;;;4.43;4.13;;;31.40;64.20;;;;;;4973506;28;20463;-67
2022/10/05 09:39:30;;;;;;;4.30;4.00;;;31.40;60.00;;;;;;4974155;28;20453;-67
2022/10/05 09:42:16;;;;;;;5.27;4.87;;;31.90;61.90;;;;;;4975098;28;20533;-68
2022/10/05 09:45:14;;;;;;;4.30;4.00;;;32.50;58.70;;;;;;4975371;28;20850;-67
2022/10/05 09:48:16;;;;;;;4.97;4.67;;;33.10;57.10;;;;;;4976303;28;20959;-68
2022/10/05 09:51:03;;;;;;;4.70;4.40;;;33.00;57.00;;;;;;4965142;28;20985;-68
2022/10/05 09:54:02;;;;;;;5.43;4.93;;;33.20;56.80;;;;;;4975518;28;20439;-68
2022/10/05 09:57:03;;;;;;;4.23;3.93;;;33.30;55.70;;;;;;4975335;28;20489;-68
2022/10/05 09:59:58;;;;;;;6.17;4.27;;;33.50;56.80;;;;;;4975143;28;20497;-68
2022/10/05 10:02:41;;;;;;;5.17;4.03;;;33.60;55.10;;;;;;4974662;28;20537;-68
2022/10/05 10:05:31;;;;;;;5.33;4.23;;;33.70;56.60;;;;;;4975118;28;20439;-68
2022/10/05 10:08:19;;;;;;;8.37;4.30;;;33.60;55.00;;;;;;4975136;28;20478;-68
2022/10/05 10:11:34;;;;;;;4.20;3.90;;;33.40;56.00;;;;;;4975439;28;20494;-68
2022/10/05 10:14:40;;;;;;;4.83;4.03;;;33.20;55.20;;;;;;4976930;28;20961;-67
2022/10/05 10:17:23;;;;;;;4.07;3.87;;;32.70;56.20;;;;;;4976372;28;20458;-68
2022/10/05 10:20:22;;;;;;;4.40;4.10;;;32.80;57.20;;;;;;4976142;28;20446;-67
2022/10/05 10:23:19;;;;;;;4.10;3.80;;;32.70;56.20;;;;;;4959500;28;20564;-68
2022/10/05 10:26:39;;;;;;;3.97;3.50;;;32.70;57.40;;;;;;4977060;28;20458;-68
2022/10/05 10:29:33;;;;;;;4.83;3.90;;;32.90;55.50;;;;;;4953236;28;20462;-67
2022/10/05 10:32:16;;;;;;;4.07;3.80;;;33.00;55.60;;;;;;4977039;28;20474;-67
2022/10/05 10:35:04;;;;;;;4.40;4.10;;;32.90;55.80;;;;;;4977005;28;20902;-68
2022/10/05 10:38:14;;;;;;;5.93;4.00;;;32.80;56.40;;;;;;4980428;28;20477;-68
2022/10/05 10:41:02;;;;;;;4.10;3.90;;;32.80;55.90;;;;;;4974308;28;20478;-69
2022/10/05 10:43:50;;;;;;;4.30;3.90;;;32.70;56.60;;;;;;4980504;28;20606;-68
2022/10/05 10:46:35;;;;;;;7.97;4.30;;;32.60;58.00;;;;;;4978338;28;20498;-68
2022/10/05 10:49:15;;;;;;;3.90;3.60;;;32.10;56.80;;;;;;4978181;28;20970;-67
2022/10/05 10:52:14;;;;;;;4.33;4.03;;;31.90;58.50;;;;;;4977910;28;20993;-68
2022/10/05 10:55:07;;;;;;;4.43;4.13;;;31.10;60.10;;;;;;4970328;28;20455;-68
2022/10/05 10:57:51;;;;;;;3.80;3.50;;;30.30;63.50;;;;;;4978222;28;20490;-67
2022/10/05 11:00:28;;;;;;;4.10;3.80;;;29.90;63.60;;;;;;4977657;28;20836;-67
2022/10/05 11:03:21;;;;;;;3.90;3.47;;;29.50;66.40;;;;;;4977717;28;20855;-68
2022/10/05 11:06:27;;;;;;;3.90;3.47;;;28.90;65.00;;;;;;4978056;28;20447;-68
2022/10/05 11:09:21;;;;;;;6.87;3.37;;;28.40;68.20;;;;;;4937326;29;20456;-67
2022/10/05 11:12:21;;;;;;;3.80;3.40;;;28.00;69.40;;;;;;4937916;29;20484;-68
2022/10/05 11:15:18;;;;;;;5.30;4.07;;;27.90;73.70;;;;;;4973696;28;20884;-67
2022/10/05 11:18:14;;;;;;;3.57;3.37;;;27.50;72.90;;;;;;4961464;28;20997;-67
2022/10/05 11:21:01;;;;;;;3.40;3.10;;;27.30;73.60;;;;;;4977827;28;20478;-67
2022/10/05 11:24:00;;;;;;;3.23;2.90;;;27.30;75.50;;;;;;4977687;28;20458;-67
2022/10/05 11:26:41;;;;;;;3.07;2.87;;;27.10;73.40;;;;;;4977617;28;20435;-67
2022/10/05 11:29:26;;;;;;;2.43;2.33;;;27.20;76.50;;;;;;4977805;28;20489;-67
2022/10/05 11:32:15;;;;;;;3.87;2.70;;;27.20;76.40;;;;;;4977679;28;20470;-68
2022/10/05 11:35:02;;;;;;;2.83;2.60;;;27.30;75.80;;;;;;4977505;28;20458;-67
2022/10/05 11:38:05;;;;;;;2.70;2.60;;;27.30;76.30;;;;;;4977231;28;21010;-67
2022/10/05 11:41:16;;;;;;;4.50;2.90;;;27.10;76.30;;;;;;4978207;28;20877;-67
2022/10/05 11:44:00;;;;;;;2.83;2.60;;;27.20;75.80;;;;;;4977307;28;20888;-67
2022/10/05 11:46:32;;;;;;;3.47;2.70;;;27.30;78.30;;;;;;4977416;28;20443;-67
2022/10/05 11:49:17;;;;;;;5.33;2.80;;;27.40;77.20;;;;;;4977403;28;20474;-67
2022/10/05 11:51:54;;;;;;;2.63;2.50;;;27.10;76.90;;;;;;4977231;28;20573;-68
2022/10/05 11:54:42;;;;;;;2.10;2.00;;;27.10;77.80;;;;;;4977231;28;20509;-67
2022/10/05 11:57:16;;;;;;;2.93;2.73;;;27.10;78.70;;;;;;4975826;28;20454;-67
2022/10/05 11:59:50;;;;;;;2.93;2.50;;;27.20;77.80;;;;;;4977217;28;20438;-67
2022/10/05 12:02:46;;;;;;;2.50;2.20;;;27.30;77.50;;;;;;4976677;28;20532;-67
2022/10/05 12:05:20;;;;;;;2.70;2.50;;;27.30;78.00;;;;;;4976923;28;20802;-68
2022/10/05 12:08:02;;;;;;;2.57;2.47;;;27.30;77.00;;;;;;4977140;28;20478;-68
2022/10/05 12:10:34;;;;;;;3.17;2.37;;;27.30;75.60;;;;;;4976926;28;20443;-67
2022/10/05 12:13:24;;;;;;;4.63;2.40;;;27.30;76.10;;;;;;4976674;28;20439;-67
2022/10/05 12:15:57;;;;;;;2.73;2.50;;;27.20;77.20;;;;;;4977252;28;20439;-68
2022/10/05 12:18:44;;;;;;;3.03;2.57;;;27.40;78.70;;;;;;4977325;28;20446;-68
2022/10/05 12:21:19;;;;;;;3.47;2.30;;;27.50;79.40;;;;;;4977504;28;20479;-67
2022/10/05 12:23:52;;;;;;;3.37;2.30;;;27.50;76.80;;;;;;4979379;28;20529;-67
2022/10/05 12:26:25;;;;;;;2.60;2.40;;;27.50;76.60;;;;;;4978262;28;20458;-68
2022/10/05 12:28:57;;;;;;;2.47;2.37;;;27.50;76.90;;;;;;4976777;28;20443;-67
2022/10/05 12:31:32;;;;;;;2.57;2.47;;;27.60;79.40;;;;;;4977183;28;20553;-67
2022/10/05 12:34:08;;;;;;;2.53;2.43;;;27.90;78.40;;;;;;4977451;28;20439;-68
2022/10/05 12:36:41;;;;;;;2.60;2.40;;;27.90;74.80;;;;;;4977742;28;20443;-68
2022/10/05 12:39:16;;;;;;;2.20;2.10;;;28.00;78.40;;;;;;4976695;28;20447;-68
2022/10/05 12:41:49;;;;;;;3.23;2.53;;;28.20;81.00;;;;;;4976184;28;20482;-67
2022/10/05 12:44:31;;;;;;;2.27;2.17;;;28.30;81.20;;;;;;4976183;28;20466;-68
2022/10/05 12:47:10;;;;;;;4.53;2.13;;;28.50;77.20;;;;;;4976174;28;20443;-68
2022/10/05 12:49:50;;;;;;;2.20;2.10;;;28.50;75.20;;;;;;4976111;28;20443;-68
2022/10/05 12:52:31;;;;;;;2.50;2.30;;;28.60;77.20;;;;;;4975647;28;20839;-68
2022/10/05 12:55:06;;;;;;;2.20;2.10;;;28.60;76.10;;;;;;4975884;28;20493;-68
2022/10/05 12:57:41;;;;;;;2.23;2.03;;;28.70;77.80;;;;;;4975915;28;20438;-67
2022/10/05 13:00:11;;;;;;;2.53;2.43;;;28.60;75.90;;;;;;4975787;28;20493;-68
2022/10/05 13:02:45;;;;;;;2.53;2.33;;;28.60;77.90;;;;;;4976212;28;20558;-67
2022/10/05 13:05:26;;;;;;;2.83;2.67;;;28.60;80.00;;;;;;4975800;28;20443;-67
2022/10/05 13:08:12;;;;;;;2.67;2.47;;;28.70;82.90;;;;;;4975638;28;20911;-68
2022/10/05 13:10:46;;;;;;;5.23;2.47;;;28.80;78.70;;;;;;4975397;28;20869;-68
2022/10/05 13:13:33;;;;;;;2.73;2.53;;;28.60;78.10;;;;;;4975470;28;20907;-68
2022/10/05 13:16:09;;;;;;;3.07;2.87;;;28.50;78.80;;;;;;4974249;28;20462;-68
2022/10/05 13:18:48;;;;;;;2.70;2.60;;;28.50;79.30;;;;;;4975666;28;20443;-67
2022/10/05 13:21:19;;;;;;;3.37;2.60;;;28.20;77.60;;;;;;4975681;28;20478;-67
2022/10/05 13:23:55;;;;;;;5.10;2.60;;;28.20;82.30;;;;;;4975478;28;21044;-67
2022/10/05 13:26:28;;;;;;;3.03;2.83;;;28.00;81.30;;;;;;4975527;28;20501;-67
2022/10/05 13:29:01;;;;;;;2.30;2.20;;;27.70;82.00;;;;;;4975334;28;20832;-67
2022/10/05 13:31:31;;;;;;;2.87;2.47;;;27.80;81.90;;;;;;4975571;28;20478;-68
2022/10/05 13:34:11;;;;;;;3.40;3.10;;;27.70;82.30;;;;;;4975309;28;20439;-69
2022/10/05 13:36:47;;;;;;;3.20;3.00;;;27.50;84.00;;;;;;4975038;28;20948;-68
2022/10/05 13:39:26;;;;;;;2.63;2.43;;;27.40;84.90;;;;;;4975515;28;20497;-67
2022/10/05 13:42:03;;;;;;;2.73;2.60;;;27.30;84.50;;;;;;4976142;28;20849;-67
2022/10/05 13:44:36;;;;;;;9.37;2.83;;;27.30;84.20;;;;;;4975395;28;20521;-68
2022/10/05 13:47:08;;;;;;;2.90;2.73;;;27.10;85.90;;;;;;4975515;28;20446;-68
2022/10/05 13:49:44;;;;;;;2.80;2.60;;;27.10;86.70;;;;;;4975781;28;20439;-67
2022/10/05 13:52:20;;;;;;;4.27;2.70;;;27.00;87.50;;;;;;4975086;28;20482;-67
2022/10/05 13:54:56;;;;;;;5.10;2.30;;;26.90;86.50;;;;;;4975835;28;20438;-67
2022/10/05 13:57:43;;;;;;;3.57;2.67;;;26.80;88.20;;;;;;4974952;28;20482;-67
2022/10/05 14:00:16;;;;;;;9.87;3.10;;;26.80;87.20;;;;;;4974934;28;20443;-67
2022/10/05 14:02:47;;;;;;;2.57;2.47;;;26.60;88.30;;;;;;4974973;28;20442;-68
2022/10/05 14:05:17;;;;;;;3.10;2.80;;;26.50;87.90;;;;;;4975058;28;20459;-67
2022/10/05 14:07:50;;;;;;;5.20;2.97;;;26.60;90.20;;;;;;4974937;28;20458;-67
2022/10/05 14:10:32;;;;;;;12.90;2.70;;;26.50;90.30;;;;;;4975797;28;20443;-66
2022/10/05 14:13:09;;;;;;;4.50;2.97;;;26.50;89.50;;;;;;4979148;28;20529;-67
2022/10/05 14:15:35;;;;;;;3.27;2.50;;;26.50;88.60;;;;;;4978957;28;20442;-68
2022/10/05 14:18:23;;;;;;;2.97;2.77;;;26.50;89.50;;;;;;4978661;28;20942;-67
2022/10/05 14:20:59;;;;;;;2.90;2.70;;;26.50;89.40;;;;;;4978816;28;20533;-68
2022/10/05 14:23:27;;;;;;;2.80;2.40;;;26.40;89.50;;;;;;4978729;28;20466;-67
2022/10/05 14:25:54;;;;;;;4.90;3.33;;;26.30;89.80;;;;;;4979515;28;20513;-67
2022/10/05 14:28:30;;;;;;;4.07;3.00;;;26.20;89.00;;;;;;4978833;28;20453;-67
2022/10/05 14:30:58;;;;;;;5.07;2.83;;;26.10;91.00;;;;;;4978921;28;20478;-68
2022/10/05 14:33:27;;;;;;;3.10;2.90;;;25.90;91.30;;;;;;4978687;28;20476;-68
2022/10/05 14:35:56;;;;;;;3.43;3.13;;;25.80;91.60;;;;;;4978660;28;20892;-68
2022/10/05 14:38:27;;;;;;;4.93;3.13;;;25.80;92.50;;;;;;4978058;28;21025;-67
2022/10/05 14:41:19;;;;;;;12.60;3.00;;;25.70;91.50;;;;;;4978493;28;20474;-68
2022/10/05 14:44:01;;;;;;;2.70;2.50;;;25.60;91.90;;;;;;4976750;28;20988;-68
2022/10/05 14:46:31;;;;;;;4.47;3.07;;;25.60;91.80;;;;;;4979488;28;20504;-67
2022/10/05 14:49:16;;;;;;;3.30;3.07;;;25.50;92.80;;;;;;4979486;28;20462;-67
2022/10/05 14:51:42;;;;;;;3.03;2.93;;;25.40;92.80;;;;;;4978781;28;20529;-67
2022/10/05 14:54:24;;;;;;;3.97;2.83;;;25.30;95.00;;;;;;4978490;28;20454;-67
2022/10/05 14:56:58;;;;;;;3.57;3.27;;;25.20;95.10;;;;;;4978539;28;20469;-67
2022/10/05 14:59:47;;;;;;;3.33;3.03;;;25.20;94.70;;;;;;4978440;28;20478;-67
2022/10/05 15:02:34;;;;;;;3.73;3.23;;;25.20;94.40;;;;;;4978152;28;20483;-67
2022/10/05 15:05:02;;;;;;;2.63;2.53;;;25.20;94.70;;;;;;4978423;28;20467;-68
2022/10/05 15:07:34;;;;;;;5.50;3.00;;;25.30;96.10;;;;;;4977980;28;20458;-67
2022/10/05 15:10:16;;;;;;;3.23;2.93;;;25.20;95.00;;;;;;4977837;28;20933;-68
2022/10/05 15:12:47;;;;;;;3.93;2.80;;;25.10;95.10;;;;;;4977955;28;20439;-68
2022/10/05 15:15:27;;;;;;;5.27;2.97;;;25.00;96.10;;;;;;4977515;28;20435;-67
2022/10/05 15:17:59;;;;;;;7.63;3.40;;;25.00;95.10;;;;;;4977760;28;20461;-67
2022/10/05 15:20:34;;;;;;;3.00;2.73;;;25.00;95.70;;;;;;4977824;28;20454;-68
2022/10/05 15:23:13;;;;;;;3.70;2.57;;;24.90;95.70;;;;;;4977674;28;20497;-67
2022/10/05 15:25:47;;;;;;;3.17;2.40;;;24.90;94.40;;;;;;4977750;28;20466;-68
2022/10/05 15:28:23;;;;;;;2.90;2.70;;;24.90;94.40;;;;;;4977672;28;20443;-68
2022/10/05 15:31:01;;;;;;;3.90;3.50;;;24.70;95.90;;;;;;4977509;28;20470;-67
2022/10/05 15:33:32;;;;;;;2.63;2.50;;;24.70;95.30;;;;;;4977526;28;20435;-67
2022/10/05 15:36:10;;;;;;;3.23;3.03;;;24.60;95.60;;;;;;4977426;28;20445;-68
2022/10/05 15:38:49;;;;;;;3.10;2.80;;;24.50;95.90;;;;;;4977408;28;20497;-68
2022/10/05 15:41:19;;;;;;;2.77;2.37;;;24.50;96.00;;;;;;4977169;28;20470;-67
2022/10/05 15:43:55;;;;;;;6.00;2.90;;;24.30;96.10;;;;;;4977117;28;20462;-67
2022/10/05 15:46:32;;;;;;;2.70;2.53;;;24.20;97.00;;;;;;4977329;28;20530;-68
2022/10/05 15:49:13;;;;;;;3.23;2.93;;;24.20;97.50;;;;;;4977398;28;20443;-67
2022/10/05 15:51:50;;;;;;;3.43;3.03;;;24.10;98.40;;;;;;4977223;28;20541;-68
2022/10/05 15:54:42;;;;;;;3.50;3.20;;;24.00;97.50;;;;;;4977078;28;20431;-68
2022/10/05 15:57:16;;;;;;;3.00;2.80;;;23.90;99.10;;;;;;4977011;28;20450;-67
2022/10/05 15:59:52;;;;;;;3.77;3.43;;;23.80;99.70;;;;;;4977107;28;20526;-66
2022/10/05 16:02:28;;;;;;;4.73;3.10;;;23.70;99.90;;;;;;4977213;28;20490;-68
2022/10/05 16:05:06;;;;;;;3.20;3.00;;;23.60;99.90;;;;;;4977461;28;20557;-68
2022/10/05 16:10:26;;;;;;;3.00;2.70;;;23.50;99.90;;;;;;4977258;28;20427;-66
2022/10/05 16:13:04;;;;;;;3.13;2.83;;;23.40;99.90;;;;;;4976709;28;20454;-67
2022/10/05 16:15:35;;;;;;;3.57;3.27;;;23.30;99.90;;;;;;4976787;28;20462;-67
2022/10/05 16:18:39;;;;;;;4.20;3.10;;;23.20;99.90;;;;;;4976649;28;20495;-67
2022/10/05 16:21:16;;;;;;;5.60;3.30;;;23.10;99.90;;;;;;4976605;28;20474;-67
2022/10/05 16:23:57;;;;;;;2.70;2.60;;;23.00;99.90;;;;;;4976464;28;20443;-68
2022/10/05 16:26:33;;;;;;;3.50;3.20;;;22.90;99.90;;;;;;4976743;28;20447;-67
2022/10/05 16:29:06;;;;;;;4.50;3.50;;;22.80;99.90;;;;;;4976347;28;20910;-68
2022/10/05 16:31:40;;;;;;;3.73;3.43;;;22.70;99.90;;;;;;4976271;28;20476;-67
2022/10/05 16:34:22;;;;;;;3.37;2.87;;;22.70;99.90;;;;;;4975482;28;20914;-68
2022/10/05 16:36:59;;;;;;;2.93;2.70;;;22.60;99.90;;;;;;4976315;28;20534;-67
2022/10/05 16:39:44;;;;;;;3.20;3.00;;;22.50;99.90;;;;;;4976143;28;20788;-68
2022/10/05 16:42:23;;;;;;;3.43;3.23;;;22.40;99.90;;;;;;4976023;28;20989;-67
2022/10/05 16:44:58;;;;;;;3.80;3.30;;;22.30;99.90;;;;;;4975976;28;20517;-67
2022/10/05 16:47:39;;;;;;;3.97;3.13;;;22.10;99.90;;;;;;4976144;28;20442;-68
2022/10/05 16:50:17;;;;;;;3.50;3.20;;;21.90;99.90;;;;;;4976229;28;20453;-67
2022/10/05 16:52:50;;;;;;;3.77;3.47;;;21.70;99.90;;;;;;4976226;28;20443;-67
2022/10/05 16:55:27;;;;;;;3.23;3.03;;;21.50;99.90;;;;;;4975605;28;20969;-67
2022/10/05 16:57:56;;;;;;;4.13;3.73;;;21.40;99.90;;;;;;4975998;28;20439;-67
2022/10/05 17:00:23;;;;;;;3.73;3.53;;;21.20;99.90;;;;;;4977221;28;20462;-67
2022/10/05 17:03:03;;;;;;;3.77;2.83;;;21.10;99.90;;;;;;4978525;28;20450;-68
2022/10/05 17:05:54;;;;;;;6.67;3.50;;;21.00;99.90;;;;;;4977176;28;20522;-67
2022/10/05 17:08:38;;;;;;;3.80;3.50;;;20.90;99.90;;;;;;4977289;28;20968;-67
2022/10/05 17:11:12;;;;;;;5.10;4.50;;;20.80;99.90;;;;;;4976225;28;20817;-67
2022/10/05 17:14:02;;;;;;;6.20;5.60;;;20.80;99.90;;;;;;4976606;28;20439;-67
2022/10/05 17:16:37;;;;;;;5.63;4.63;;;20.70;99.90;;;;;;4976261;28;20470;-67
2022/10/05 17:19:27;;;;;;;4.73;3.00;;;20.60;99.90;;;;;;4975743;28;20469;-67
2022/10/05 17:21:59;;;;;;;3.00;2.70;;;20.60;99.90;;;;;;4975700;28;20474;-67
2022/10/05 17:24:44;;;;;;;3.50;3.20;;;20.60;99.90;;;;;;4975360;28;20510;-67
2022/10/05 17:27:27;;;;;;;4.87;2.93;;;20.50;99.90;;;;;;4975425;28;20443;-68
2022/10/05 17:30:15;;;;;;;3.10;2.90;;;20.40;99.90;;;;;;4975501;28;20478;-68
2022/10/05 17:32:57;;;;;;;4.90;4.03;;;20.40;99.90;;;;;;4975000;28;20451;-67
2022/10/05 17:35:49;;;;;;;3.40;3.10;;;20.30;99.90;;;;;;4975212;28;20490;-68
2022/10/05 17:38:20;;;;;;;3.57;3.27;;;20.20;99.90;;;;;;4975325;28;20443;-67
2022/10/05 17:41:14;;;;;;;4.60;2.60;;;20.10;99.90;;;;;;4976162;28;20466;-68
2022/10/05 17:44:01;;;;;;;2.50;2.30;;;20.10;99.90;;;;;;4975120;28;20490;-67
2022/10/05 17:46:38;;;;;;;3.53;2.07;;;20.00;99.90;;;;;;4974542;28;20505;-67
2022/10/05 17:49:25;;;;;;;2.40;2.20;;;19.90;99.90;;;;;;4975857;28;20434;-67
2022/10/05 17:55:27;;;;;;;4.17;2.00;;;19.90;99.90;;;;;;4975081;28;20909;-67
2022/10/05 17:57:59;;;;;;;3.00;1.80;;;20.00;99.90;;;;;;4975263;28;20435;-67